PWSweather.com
Personal Weather Stations
Station Observations
ALMOSTER
Urb. Mas Carreras, AlmosterES 43393

Urb. Mas CarrerasAlmosterES 43393

Lat: 41.1908333333, Lon: 1.1086111111

Elevation: 836.6

Station Type: Davis Vantage Pro 2

http://www.meteoalmoster.net

High Low Average
Temperature 56.5°F13.6°C 39.9°F4.4°C 49.0°F9.4°C
Dew Point 46.8°F8.2°C 24.6°F-4.1°C 36.7°F2.6°C
Winds 9.0 mph 14.5 kmh Calm Calm 2.0 mph SSW3.2 kmh SSW
Wind Gusts 11.0 mph17.7 kmh -- 5.0 mph8.0 kmh
Humidity 97% 33% 68%
Pressure 29.77 in1008.1 mb 29.46 in997.6 mb -
Precipitation 0.21 in5.3 mm - -
Hour Temp Dew Point Humidity Winds Wind Gusts Pressure Precip Precip Rate Daily Precip Total
12:00 AM 56.5°F13.6°C 27.7°F-2.4°C 33% Calm Calm 2.0 mph3.2 kmh 29.46 in997.6 mb 0.00 in0.0 mm 0.00 in0.0 mm 0.01 in0.3 mm
12:30 AM 56.5°F13.6°C 27.7°F-2.4°C 33% Calm Calm 2.0 mph3.2 kmh 29.46 in997.6 mb 0.00 in0.0 mm 0.00 in0.0 mm 0.01 in0.3 mm
01:00 AM 56.5°F13.6°C 27.7°F-2.4°C 33% Calm Calm 2.0 mph3.2 kmh 29.46 in997.6 mb 0.00 in0.0 mm 0.00 in0.0 mm 0.00 in0.0 mm
01:30 AM 56.5°F13.6°C 27.7°F-2.4°C 33% Calm Calm 2.0 mph3.2 kmh 29.46 in997.6 mb 0.00 in0.0 mm 0.00 in0.0 mm 0.00 in0.0 mm
02:00 AM 56.5°F13.6°C 27.7°F-2.4°C 33% Calm Calm 2.0 mph3.2 kmh 29.46 in997.6 mb 0.00 in0.0 mm 0.00 in0.0 mm 0.00 in0.0 mm
02:30 AM 56.5°F13.6°C 27.7°F-2.4°C 33% Calm Calm 2.0 mph3.2 kmh 29.46 in997.6 mb 0.00 in0.0 mm 0.00 in0.0 mm 0.00 in0.0 mm
03:00 AM 56.5°F13.6°C 27.7°F-2.4°C 33% Calm Calm 2.0 mph3.2 kmh 29.46 in997.6 mb 0.00 in0.0 mm 0.00 in0.0 mm 0.00 in0.0 mm
03:30 AM 56.5°F13.6°C 27.7°F-2.4°C 33% Calm Calm 2.0 mph3.2 kmh 29.46 in997.6 mb 0.00 in0.0 mm 0.00 in0.0 mm 0.00 in0.0 mm
04:00 AM 56.5°F13.6°C 27.7°F-2.4°C 33% Calm Calm 2.0 mph3.2 kmh 29.46 in997.6 mb 0.00 in0.0 mm 0.00 in0.0 mm 0.00 in0.0 mm
04:30 AM 56.5°F13.6°C 27.7°F-2.4°C 33% Calm Calm 2.0 mph3.2 kmh 29.46 in997.6 mb 0.00 in0.0 mm 0.00 in0.0 mm 0.00 in0.0 mm
05:00 AM 56.5°F13.6°C 27.7°F-2.4°C 33% Calm Calm 2.0 mph3.2 kmh 29.46 in997.6 mb 0.00 in0.0 mm 0.00 in0.0 mm 0.00 in0.0 mm
05:30 AM 56.5°F13.6°C 27.7°F-2.4°C 33% Calm Calm 2.0 mph3.2 kmh 29.46 in997.6 mb 0.00 in0.0 mm 0.00 in0.0 mm 0.00 in0.0 mm
06:00 AM 56.5°F13.6°C 27.7°F-2.4°C 33% Calm Calm 2.0 mph3.2 kmh 29.46 in997.6 mb 0.00 in0.0 mm 0.00 in0.0 mm 0.00 in0.0 mm
06:30 AM 56.5°F13.6°C 27.7°F-2.4°C 33% Calm Calm 2.0 mph3.2 kmh 29.46 in997.6 mb 0.00 in0.0 mm 0.00 in0.0 mm 0.00 in0.0 mm
07:00 AM 56.5°F13.6°C 27.7°F-2.4°C 33% Calm Calm 2.0 mph3.2 kmh 29.46 in997.6 mb 0.00 in0.0 mm 0.00 in0.0 mm 0.00 in0.0 mm
07:30 AM 56.5°F13.6°C 27.7°F-2.4°C 33% Calm Calm 2.0 mph3.2 kmh 29.46 in997.6 mb 0.00 in0.0 mm 0.00 in0.0 mm 0.00 in0.0 mm
08:00 AM 56.5°F13.6°C 27.7°F-2.4°C 33% Calm Calm 2.0 mph3.2 kmh 29.46 in997.6 mb 0.00 in0.0 mm 0.00 in0.0 mm 0.00 in0.0 mm
08:30 AM 56.5°F13.6°C 27.7°F-2.4°C 33% Calm Calm 2.0 mph3.2 kmh 29.46 in997.6 mb 0.00 in0.0 mm 0.00 in0.0 mm 0.00 in0.0 mm
08:54 AM 47.6°F8.7°C 46.8°F8.2°C 97% 1.0 mph W1.6 kmh W 8.0 mph12.9 kmh 29.55 in1000.7 mb 0.00 in0.0 mm 0.00 in0.0 mm 0.00 in0.0 mm
08:55 AM 47.6°F8.7°C 46.8°F8.2°C 97% 2.0 mph W3.2 kmh W 10.0 mph16.1 kmh 29.56 in1001.0 mb 0.00 in0.0 mm 0.00 in0.0 mm 0.00 in0.0 mm
08:56 AM 47.6°F8.7°C 46.5°F8.1°C 96% 3.0 mph W4.8 kmh W 10.0 mph16.1 kmh 29.56 in1001.0 mb 0.00 in0.0 mm 0.00 in0.0 mm 0.00 in0.0 mm
08:57 AM 47.5°F8.6°C 46.4°F8.0°C 96% 4.0 mph W6.4 kmh W 10.0 mph16.1 kmh 29.56 in1001.0 mb 0.00 in0.0 mm 0.00 in0.0 mm 0.00 in0.0 mm
08:58 AM 47.5°F8.6°C 46.4°F8.0°C 96% 4.0 mph W6.4 kmh W 10.0 mph16.1 kmh 29.56 in1001.0 mb 0.00 in0.0 mm 0.00 in0.0 mm 0.00 in0.0 mm
08:59 AM 47.5°F8.6°C 46.4°F8.0°C 96% 6.0 mph W9.7 kmh W 11.0 mph17.7 kmh 29.56 in1001.0 mb 0.00 in0.0 mm 0.00 in0.0 mm 0.00 in0.0 mm
09:00 AM 47.5°F8.6°C 46.4°F8.0°C 96% 6.0 mph W9.7 kmh W 11.0 mph17.7 kmh 29.56 in1001.0 mb 0.00 in0.0 mm 0.00 in0.0 mm 0.00 in0.0 mm
09:01 AM 47.5°F8.6°C 46.4°F8.0°C 96% 7.0 mph W11.3 kmh W 11.0 mph17.7 kmh 29.56 in1001.0 mb 0.00 in0.0 mm 0.00 in0.0 mm 0.00 in0.0 mm
09:02 AM 47.5°F8.6°C 46.4°F8.0°C 96% 8.0 mph W12.9 kmh W 11.0 mph17.7 kmh 29.56 in1001.0 mb 0.00 in0.0 mm 0.00 in0.0 mm 0.00 in0.0 mm
09:03 AM 47.5°F8.6°C 46.4°F8.0°C 96% 9.0 mph W14.5 kmh W 11.0 mph17.7 kmh 29.56 in1001.0 mb 0.00 in0.0 mm 0.00 in0.0 mm 0.00 in0.0 mm
09:30 AM 47.1°F8.4°C 45.5°F7.5°C 94% 5.0 mph W8.0 kmh W 9.0 mph14.5 kmh 29.57 in1001.4 mb 0.21 in5.3 mm 0.47 in11.9 mm 0.21 in5.3 mm
10:00 AM 47.1°F8.4°C 45.3°F7.4°C 93% 4.0 mph W6.4 kmh W 8.0 mph12.9 kmh 29.58 in1001.7 mb 0.21 in5.3 mm 0.00 in0.0 mm 0.21 in5.3 mm
10:30 AM 47.1°F8.4°C 45.3°F7.4°C 93% 4.0 mph W6.4 kmh W 8.0 mph12.9 kmh 29.58 in1001.7 mb 0.00 in0.0 mm 0.00 in0.0 mm 0.21 in5.3 mm
11:00 AM 47.1°F8.4°C 45.3°F7.4°C 93% 4.0 mph W6.4 kmh W 8.0 mph12.9 kmh 29.58 in1001.7 mb 0.00 in0.0 mm 0.00 in0.0 mm 0.21 in5.3 mm
11:30 AM 47.1°F8.4°C 45.3°F7.4°C 93% 4.0 mph W6.4 kmh W 8.0 mph12.9 kmh 29.58 in1001.7 mb 0.00 in0.0 mm 0.00 in0.0 mm 0.21 in5.3 mm
12:00 PM 47.1°F8.4°C 45.3°F7.4°C 93% 4.0 mph W6.4 kmh W 8.0 mph12.9 kmh 29.58 in1001.7 mb 0.00 in0.0 mm 0.00 in0.0 mm 0.21 in5.3 mm
12:30 PM 47.1°F8.4°C 45.3°F7.4°C 93% 4.0 mph W6.4 kmh W 8.0 mph12.9 kmh 29.58 in1001.7 mb 0.00 in0.0 mm 0.00 in0.0 mm 0.21 in5.3 mm
01:00 PM 47.1°F8.4°C 45.3°F7.4°C 93% 4.0 mph W6.4 kmh W 8.0 mph12.9 kmh 29.58 in1001.7 mb 0.00 in0.0 mm 0.00 in0.0 mm 0.21 in5.3 mm
01:30 PM 47.1°F8.4°C 45.3°F7.4°C 93% 4.0 mph W6.4 kmh W 8.0 mph12.9 kmh 29.58 in1001.7 mb 0.00 in0.0 mm 0.00 in0.0 mm 0.21 in5.3 mm
02:00 PM 47.1°F8.4°C 45.3°F7.4°C 93% 4.0 mph W6.4 kmh W 8.0 mph12.9 kmh 29.58 in1001.7 mb 0.00 in0.0 mm 0.00 in0.0 mm 0.21 in5.3 mm
02:30 PM 47.1°F8.4°C 45.3°F7.4°C 93% 4.0 mph W6.4 kmh W 8.0 mph12.9 kmh 29.58 in1001.7 mb 0.00 in0.0 mm 0.00 in0.0 mm 0.21 in5.3 mm
03:00 PM 47.1°F8.4°C 45.3°F7.4°C 93% 4.0 mph W6.4 kmh W 8.0 mph12.9 kmh 29.58 in1001.7 mb 0.00 in0.0 mm 0.00 in0.0 mm 0.21 in5.3 mm
03:30 PM 47.1°F8.4°C 45.3°F7.4°C 93% 4.0 mph W6.4 kmh W 8.0 mph12.9 kmh 29.58 in1001.7 mb 0.00 in0.0 mm 0.00 in0.0 mm 0.21 in5.3 mm
04:00 PM 47.1°F8.4°C 45.3°F7.4°C 93% 4.0 mph W6.4 kmh W 8.0 mph12.9 kmh 29.58 in1001.7 mb 0.00 in0.0 mm 0.00 in0.0 mm 0.21 in5.3 mm
04:30 PM 47.1°F8.4°C 45.3°F7.4°C 93% 4.0 mph W6.4 kmh W 8.0 mph12.9 kmh 29.58 in1001.7 mb 0.00 in0.0 mm 0.00 in0.0 mm 0.21 in5.3 mm
05:00 PM 47.1°F8.4°C 45.3°F7.4°C 93% 4.0 mph W6.4 kmh W 8.0 mph12.9 kmh 29.58 in1001.7 mb 0.00 in0.0 mm 0.00 in0.0 mm 0.21 in5.3 mm
05:30 PM 47.1°F8.4°C 45.3°F7.4°C 93% 4.0 mph W6.4 kmh W 8.0 mph12.9 kmh 29.58 in1001.7 mb 0.00 in0.0 mm 0.00 in0.0 mm 0.21 in5.3 mm
06:00 PM 47.1°F8.4°C 45.3°F7.4°C 93% 4.0 mph W6.4 kmh W 8.0 mph12.9 kmh 29.58 in1001.7 mb 0.00 in0.0 mm 0.00 in0.0 mm 0.21 in5.3 mm
06:30 PM 47.1°F8.4°C 45.3°F7.4°C 93% 4.0 mph W6.4 kmh W 8.0 mph12.9 kmh 29.58 in1001.7 mb 0.00 in0.0 mm 0.00 in0.0 mm 0.21 in5.3 mm
06:40 PM 45.9°F7.7°C 32.8°F0.4°C 60% 4.0 mph W6.4 kmh W 5.0 mph8.0 kmh 29.70 in1005.8 mb 0.00 in0.0 mm 0.00 in0.0 mm 0.21 in5.3 mm
06:41 PM 45.8°F7.7°C 32.7°F0.4°C 60% 4.0 mph W6.4 kmh W 5.0 mph8.0 kmh 29.70 in1005.8 mb 0.00 in0.0 mm 0.00 in0.0 mm 0.21 in5.3 mm
06:42 PM 45.8°F7.7°C 32.7°F0.4°C 60% 3.0 mph W4.8 kmh W 5.0 mph8.0 kmh 29.69 in1005.4 mb 0.00 in0.0 mm 0.00 in0.0 mm 0.21 in5.3 mm
06:43 PM 45.8°F7.7°C 32.7°F0.4°C 60% 3.0 mph W4.8 kmh W 5.0 mph8.0 kmh 29.70 in1005.8 mb 0.00 in0.0 mm 0.00 in0.0 mm 0.21 in5.3 mm
06:44 PM 45.8°F7.7°C 32.7°F0.4°C 60% 2.0 mph W3.2 kmh W 5.0 mph8.0 kmh 29.70 in1005.8 mb 0.00 in0.0 mm 0.00 in0.0 mm 0.21 in5.3 mm
06:45 PM 45.8°F7.7°C 32.7°F0.4°C 60% 2.0 mph W3.2 kmh W 5.0 mph8.0 kmh 29.70 in1005.8 mb 0.00 in0.0 mm 0.00 in0.0 mm 0.21 in5.3 mm
07:00 PM 45.3°F7.4°C 32.7°F0.4°C 61% Calm Calm -- 29.70 in1005.8 mb 0.00 in0.0 mm 0.00 in0.0 mm 0.21 in5.3 mm
07:30 PM 45.1°F7.3°C 32.9°F0.5°C 62% Calm Calm -- 29.71 in1006.1 mb 0.00 in0.0 mm 0.00 in0.0 mm 0.21 in5.3 mm
08:00 PM 44.2°F6.8°C 31.6°F-0.2°C 61% Calm Calm -- 29.71 in1006.1 mb 0.00 in0.0 mm 0.00 in0.0 mm 0.21 in5.3 mm
08:30 PM 43.2°F6.2°C 30.2°F-1.0°C 60% Calm Calm -- 29.72 in1006.4 mb 0.00 in0.0 mm 0.00 in0.0 mm 0.21 in5.3 mm
09:00 PM 42.8°F6.0°C 29.5°F-1.4°C 59% Calm Calm -- 29.73 in1006.8 mb 0.00 in0.0 mm 0.00 in0.0 mm 0.21 in5.3 mm
09:30 PM 42.3°F5.7°C 28.9°F-1.7°C 59% Calm Calm -- 29.73 in1006.8 mb 0.00 in0.0 mm 0.00 in0.0 mm 0.21 in5.3 mm
10:00 PM 41.5°F5.3°C 27.9°F-2.3°C 58% Calm Calm -- 29.75 in1007.5 mb 0.00 in0.0 mm 0.00 in0.0 mm 0.21 in5.3 mm
10:30 PM 40.6°F4.8°C 25.7°F-3.5°C 55% Calm Calm -- 29.76 in1007.8 mb 0.00 in0.0 mm 0.00 in0.0 mm 0.21 in5.3 mm
11:00 PM 39.9°F4.4°C 24.6°F-4.1°C 54% Calm Calm -- 29.76 in1007.8 mb 0.00 in0.0 mm 0.00 in0.0 mm 0.21 in5.3 mm
11:30 PM 41.0°F5.0°C 27.7°F-2.4°C 59% Calm Calm -- 29.77 in1008.1 mb 0.00 in0.0 mm 0.00 in0.0 mm 0.21 in5.3 mm